No particular awareness of the weather is required.    There are no Weather-warnings


Meteo18 Weather Cam more information Meteo18 Weather Cam


Thunder radar more information blitzortung!


Rain radar more information rain snow radar


Visit our other weather sites:

Template documentation
and downloads

And another site



Weather Underground History page Text

Daily Summary for March 29, 2017 Units:  English    Metric   Both
« Previous Day
Next Day »
Daily Weekly Monthly Yearly Custom
  High: Low: Average:
Temperature: TemperatureC °F 4.8 °F 12.7 °F
Dew Point: DewpointC °F 4.1 °F 6.9 °F
Humidity: Humidity % 40 % 70 %
Wind Speed: WindSpeedKMH mph 0.0 mph 1.2 mph
Wind Gust: WindSpeedGustKMH mph - -
Wind:- - SW
Pressure: PressurehPa in 1026.0 in -
Precipitation: 0.0 in    
Historical Graphs
 
 
Tabular Data for March 29, 2017
Time Temperature Dew Point Pressure Wind Wind Speed Wind Gust Humidity Rainfall Rate (Hourly)
TemperatureC °F DewpointC °F PressurehPa in Calm     Humidity % HourlyPrecipMM in
00:02 10.3 °F 7.2 °F 1028.0 in Calm   1.6 mph 81 % 0.0 in
00:12 10.3 °F 7.0 °F 1028.3 in Calm   1.6 mph 80 % 0.0 in
00:17 10.1 °F 6.8 °F 1028.3 in Calm     80 % 0.0 in
00:22 9.9 °F 6.6 °F 1028.3 in Calm     80 % 0.0 in
00:32 9.5 °F 6.6 °F 1028.3 in Calm     82 % 0.0 in
00:42 9.4 °F 6.7 °F 1028.7 in Calm     83 % 0.0 in
00:47 9.3 °F 6.7 °F 1028.3 in Calm     84 % 0.0 in
00:52 9.4 °F 6.8 °F 1028.3 in Calm     84 % 0.0 in
00:59 9.4 °F 6.7 °F 1028.7 in Calm     83 % 0.0 in
01:07 9.6 °F 6.9 °F 1028.7 in Calm   1.6 mph 83 % 0.0 in
01:12 9.5 °F 6.6 °F 1028.7 in Calm   1.6 mph 82 % 0.0 in
01:17 9.2 °F 6.3 °F 1028.7 in Calm   1.6 mph 82 % 0.0 in
01:22 9.1 °F 6.5 °F 1028.3 in Calm     84 % 0.0 in
01:32 9.3 °F 6.7 °F 1028.3 in Calm     84 % 0.0 in
01:42 9.2 °F 6.5 °F 1028.3 in Calm     83 % 0.0 in
01:47 8.9 °F 6.2 °F 1028.3 in Calm     83 % 0.0 in
01:52 8.8 °F 6.2 °F 1028.3 in Calm     84 % 0.0 in
01:57 8.6 °F 6.2 °F 1028.3 in Calm     85 % 0.0 in
02:02 8.4 °F 6.0 °F 1028.3 in Calm     85 % 0.0 in
02:07 8.4 °F 6.2 °F 1028.3 in Calm     86 % 0.0 in
02:12 8.2 °F 6.0 °F 1028.3 in Calm     86 % 0.0 in
02:17 8.1 °F 6.1 °F 1028.3 in Calm     87 % 0.0 in
02:22 8.2 °F 6.3 °F 1028.3 in Calm     88 % 0.0 in
02:32 8.3 °F 6.3 °F 1028.3 in Calm     87 % 0.0 in
02:42 7.9 °F 6.0 °F 1028.3 in Calm     88 % 0.0 in
02:52 8.1 °F 6.4 °F 1028.3 in Calm     89 % 0.0 in
02:57 8.3 °F 6.4 °F 1028.3 in Calm     88 % 0.0 in
03:02 8.4 °F 6.5 °F 1028.3 in Calm     88 % 0.0 in
03:12 8.5 °F 6.5 °F 1028.3 in Calm     87 % 0.0 in
03:17 8.3 °F 6.3 °F 1028.3 in Calm     87 % 0.0 in
03:22 8.2 °F 6.2 °F 1028.3 in Calm     87 % 0.0 in
03:32 7.8 °F 5.9 °F 1028.3 in Calm     88 % 0.0 in
03:42 7.3 °F 5.6 °F 1028.3 in Calm     89 % 0.0 in
03:47 7.1 °F 5.4 °F 1028.3 in Calm     89 % 0.0 in
03:52 7.1 °F 5.6 °F 1028.3 in Calm     90 % 0.0 in
03:57 6.9 °F 5.4 °F 1028.3 in Calm     90 % 0.0 in
04:02 6.9 °F 5.5 °F 1028.3 in Calm     91 % 0.0 in
04:12 6.9 °F 5.5 °F 1028.0 in Calm     91 % 0.0 in
04:17 6.9 °F 5.5 °F 1028.0 in Calm     91 % 0.0 in
04:22 6.8 °F 5.4 °F 1028.0 in Calm     91 % 0.0 in
04:32 6.6 °F 5.2 °F 1028.3 in Calm     91 % 0.0 in
04:42 6.4 °F 5.2 °F 1028.3 in Calm     92 % 0.0 in
04:52 6.1 °F 4.9 °F 1028.3 in Calm     92 % 0.0 in
04:57 6.0 °F 4.8 °F 1028.3 in Calm     92 % 0.0 in
05:02 5.9 °F 4.9 °F 1028.3 in Calm     93 % 0.0 in
05:07 5.9 °F 4.9 °F 1028.3 in Calm     93 % 0.0 in
05:12 5.9 °F 4.9 °F 1028.3 in Calm     93 % 0.0 in
05:17 6.0 °F 5.1 °F 1028.3 in Calm     94 % 0.0 in
05:22 5.8 °F 4.8 °F 1028.3 in Calm     93 % 0.0 in
05:32 5.7 °F 4.8 °F 1028.3 in Calm   1.6 mph 94 % 0.0 in
05:42 5.8 °F 4.9 °F 1028.3 in Calm   1.6 mph 94 % 0.0 in
05:47 5.8 °F 4.9 °F 1028.3 in Calm     94 % 0.0 in
05:52 5.8 °F 4.9 °F 1028.3 in Calm     94 % 0.0 in
06:02 5.8 °F 4.9 °F 1028.3 in Calm   1.6 mph 94 % 0.0 in
06:07 5.7 °F 4.8 °F 1028.3 in Calm   1.6 mph 94 % 0.0 in
06:12 5.7 °F 4.8 °F 1028.3 in Calm   1.6 mph 94 % 0.0 in
06:17 5.4 °F 4.4 °F 1028.3 in Calm   1.6 mph 93 % 0.0 in
06:22 5.2 °F 4.3 °F 1028.3 in Calm   1.6 mph 94 % 0.0 in
06:32 5.4 °F 4.7 °F 1028.3 in North 1.6 mph 1.6 mph 95 % 0.0 in
06:37 5.4 °F 4.7 °F 1028.3 in North 3.2 mph 3.2 mph 95 % 0.0 in
06:42 5.5 °F 4.8 °F 1028.3 in Calm   3.2 mph 95 % 0.0 in
06:47 5.4 °F 4.5 °F 1028.3 in North 1.6 mph 3.2 mph 94 % 0.0 in
06:52 5.3 °F 4.6 °F 1028.3 in Calm   3.2 mph 95 % 0.0 in
06:57 5.3 °F 4.6 °F 1028.3 in Calm   1.6 mph 95 % 0.0 in
07:02 5.1 °F 4.2 °F 1028.3 in Calm   1.6 mph 94 % 0.0 in
07:12 5.1 °F 4.4 °F 1028.3 in Calm     95 % 0.0 in
07:22 4.9 °F 4.2 °F 1028.7 in Calm     95 % 0.0 in
07:32 5.1 °F 4.5 °F 1028.7 in Calm     96 % 0.0 in
07:42 4.9 °F 4.2 °F 1028.7 in Calm     95 % 0.0 in
07:47 4.8 °F 4.1 °F 1028.7 in Calm     95 % 0.0 in
07:52 4.9 °F 4.2 °F 1028.7 in Calm   1.6 mph 95 % 0.0 in
07:57 5.1 °F 4.4 °F 1028.7 in Calm   1.6 mph 95 % 0.0 in
08:02 5.3 °F 4.7 °F 1029.0 in Calm   1.6 mph 96 % 0.0 in
08:12 5.3 °F 4.6 °F 1029.0 in Calm     95 % 0.0 in
08:17 5.4 °F 4.7 °F 1029.0 in Calm     95 % 0.0 in
08:22 5.6 °F 4.9 °F 1029.0 in Calm     95 % 0.0 in
08:27 5.8 °F 5.1 °F 1029.0 in Calm     95 % 0.0 in
08:32 6.6 °F 6.0 °F 1029.0 in Calm     96 % 0.0 in
08:42 7.4 °F 6.7 °F 1029.0 in Calm     95 % 0.0 in
08:52 7.8 °F 6.9 °F 1029.3 in Calm     94 % 0.0 in
09:02 9.6 °F 8.7 °F 1029.3 in Calm     94 % 0.0 in
09:12 10.7 °F 9.1 °F 1029.3 in Calm     90 % 0.0 in
09:17 9.9 °F 7.3 °F 1029.3 in SE 1.6 mph   84 % 0.0 in
09:22 9.2 °F 6.8 °F 1029.3 in ESE 1.6 mph 3.2 mph 85 % 0.0 in
09:27 8.9 °F 6.9 °F 1029.3 in SE 1.6 mph 3.2 mph 87 % 0.0 in
09:32 8.7 °F 6.8 °F 1029.3 in SE 1.6 mph 3.2 mph 88 % 0.0 in
09:37 8.7 °F 7.0 °F 1029.3 in Calm   3.2 mph 89 % 0.0 in
09:42 8.9 °F 7.2 °F 1029.3 in Calm   3.2 mph 89 % 0.0 in
09:52 9.9 °F 7.8 °F 1029.3 in Calm   1.6 mph 87 % 0.0 in
10:02 10.4 °F 8.2 °F 1029.3 in Calm     86 % 0.0 in
10:07 10.8 °F 8.4 °F 1029.3 in Calm     85 % 0.0 in
10:12 11.1 °F 8.5 °F 1029.7 in Calm     84 % 0.0 in
10:17 11.5 °F 8.9 °F 1029.7 in Calm     84 % 0.0 in
10:22 11.9 °F 9.1 °F 1029.7 in Calm     83 % 0.0 in
10:32 12.7 °F 9.5 °F 1029.7 in SE 1.6 mph   81 % 0.0 in
10:42 13.1 °F 9.2 °F 1029.7 in Calm   1.6 mph 77 % 0.0 in
10:52 12.9 °F 9.2 °F 1029.7 in Calm   3.2 mph 78 % 0.0 in
11:02 13.1 °F 9.2 °F 1029.7 in ESE 1.6 mph 4.8 mph 77 % 0.0 in
11:12 13.6 °F 9.6 °F 1029.7 in Calm   4.8 mph 77 % 0.0 in
11:17 13.8 °F 9.6 °F 1029.7 in SE 1.6 mph 4.8 mph 76 % 0.0 in
11:22 14.0 °F 9.8 °F 1029.7 in East 1.6 mph 4.8 mph 76 % 0.0 in
11:32 14.8 °F 10.4 °F 1029.7 in SE 3.2 mph 4.8 mph 75 % 0.0 in
11:37 15.0 °F 10.4 °F 1029.7 in SE 4.8 mph 4.8 mph 74 % 0.0 in
11:42 15.0 °F 10.2 °F 1029.7 in ESE 4.8 mph 6.4 mph 73 % 0.0 in
11:47 15.2 °F 10.6 °F 1029.7 in ESE 1.6 mph 6.4 mph 74 % 0.0 in
11:52 15.7 °F 10.2 °F 1029.7 in SE 4.8 mph 6.4 mph 70 % 0.0 in
12:02 16.1 °F 10.2 °F 1029.7 in SSE 4.8 mph 6.4 mph 68 % 0.0 in
12:07 16.3 °F 10.2 °F 1029.7 in SSE 1.6 mph 6.4 mph 67 % 0.0 in
12:12 16.4 °F 10.3 °F 1029.7 in ESE 4.8 mph 6.4 mph 67 % 0.0 in
12:17 16.3 °F 9.9 °F 1029.7 in Calm   6.4 mph 66 % 0.0 in
12:22 16.6 °F 10.2 °F 1029.7 in SSE 1.6 mph 6.4 mph 66 % 0.0 in
12:32 16.8 °F 9.0 °F 1029.3 in SSW 3.2 mph 6.4 mph 60 % 0.0 in
12:37 16.9 °F 9.3 °F 1029.3 in South 4.8 mph 9.7 mph 61 % 0.0 in
12:42 17.2 °F 9.1 °F 1029.3 in SSW 1.6 mph 9.7 mph 59 % 0.0 in
12:47 17.3 °F 9.0 °F 1029.3 in SW 1.6 mph 9.7 mph 58 % 0.0 in
12:52 17.3 °F 9.5 °F 1029.3 in SW 3.2 mph 6.4 mph 60 % 0.0 in
13:02 17.4 °F 9.8 °F 1029.0 in SSE 6.4 mph 6.4 mph 61 % 0.0 in
13:07 17.4 °F 9.6 °F 1029.0 in SSW 4.8 mph 6.4 mph 60 % 0.0 in
13:17 17.5 °F 9.4 °F 1029.0 in ESE 4.8 mph 9.7 mph 59 % 0.0 in
13:22 17.7 °F 9.3 °F 1029.0 in SE 4.8 mph 11.3 mph 58 % 0.0 in
13:32 17.5 °F 8.4 °F 1028.7 in SSW 3.2 mph 9.7 mph 55 % 0.0 in
13:37 17.8 °F 8.9 °F 1028.7 in WSW 1.6 mph 9.7 mph 56 % 0.0 in
13:42 18.0 °F 8.6 °F 1028.7 in SSW 4.8 mph 9.7 mph 54 % 0.0 in
13:52 18.4 °F 7.8 °F 1028.7 in SSE 3.2 mph 8.0 mph 50 % 0.0 in
13:57 18.4 °F 6.9 °F 1028.7 in SW 3.2 mph 8.0 mph 47 % 0.0 in
14:02 18.5 °F 7.6 °F 1028.7 in WSW 3.2 mph 8.0 mph 49 % 0.0 in
14:12 18.6 °F 6.4 °F 1028.7 in SSW 4.8 mph 8.0 mph 45 % 0.0 in
14:17 18.4 °F 7.8 °F 1028.7 in SSW 6.4 mph 8.0 mph 50 % 0.0 in
14:22 18.5 °F 6.7 °F 1028.7 in Calm   11.3 mph 46 % 0.0 in
14:32 18.9 °F 8.0 °F 1028.3 in ENE 3.2 mph 11.3 mph 49 % 0.0 in
14:37 18.9 °F 8.2 °F 1028.3 in Calm   8.0 mph 50 % 0.0 in
14:42 19.0 °F 7.4 °F 1028.0 in East 6.4 mph 8.0 mph 47 % 0.0 in
14:52 18.8 °F 7.6 °F 1028.0 in East 4.8 mph 9.7 mph 48 % 0.0 in
14:57 18.9 °F 6.7 °F 1028.0 in SSW 4.8 mph 9.7 mph 45 % 0.0 in
15:02 19.0 °F 7.1 °F 1028.0 in NE 4.8 mph 9.7 mph 46 % 0.0 in
15:12 19.2 °F 7.3 °F 1027.7 in SSW 4.8 mph 9.7 mph 46 % 0.0 in
15:17 19.3 °F 7.4 °F 1027.7 in SE 3.2 mph 4.8 mph 46 % 0.0 in
15:22 19.1 °F 7.2 °F 1027.7 in SE 4.8 mph 9.7 mph 46 % 0.0 in
15:27 19.2 °F 7.3 °F 1027.7 in South 4.8 mph 9.7 mph 46 % 0.0 in
15:32 19.3 °F 7.1 °F 1027.7 in SSE 3.2 mph 9.7 mph 45 % 0.0 in
15:42 19.1 °F 7.2 °F 1027.7 in WNW 3.2 mph 11.3 mph 46 % 0.0 in
15:47 19.2 °F 6.7 °F 1027.3 in WSW 6.4 mph 11.3 mph 44 % 0.0 in
15:52 18.9 °F 7.0 °F 1027.3 in SSW 3.2 mph 12.9 mph 46 % 0.0 in
15:57 19.3 °F 7.4 °F 1027.3 in ESE 4.8 mph 12.9 mph 46 % 0.0 in
16:02 19.5 °F 6.9 °F 1027.3 in South 6.4 mph 12.9 mph 44 % 0.0 in
16:12 19.3 °F 6.7 °F 1027.0 in WSW 3.2 mph 9.7 mph 44 % 0.0 in
16:17 19.3 °F 6.7 °F 1027.0 in SW 9.7 mph 11.3 mph 44 % 0.0 in
16:22 19.4 °F 6.5 °F 1027.0 in SSE 4.8 mph 11.3 mph 43 % 0.0 in
16:32 19.9 °F 6.9 °F 1027.0 in WSW 1.6 mph 11.3 mph 43 % 0.0 in
16:42 20.2 °F 6.5 °F 1026.6 in NNE 1.6 mph 6.4 mph 41 % 0.0 in
16:47 20.5 °F 6.8 °F 1026.6 in SSE 1.6 mph 4.8 mph 41 % 0.0 in
16:52 20.6 °F 7.6 °F 1026.6 in Calm   4.8 mph 43 % 0.0 in
16:57 20.6 °F 6.5 °F 1026.6 in WSW 4.8 mph 4.8 mph 40 % 0.0 in
17:02 20.2 °F 6.9 °F 1026.6 in Calm   4.8 mph 42 % 0.0 in
17:12 19.8 °F 6.5 °F 1026.3 in WSW 4.8 mph 6.4 mph 42 % 0.0 in
17:17 19.9 °F 6.9 °F 1026.3 in West 1.6 mph 9.7 mph 43 % 0.0 in
17:22 20.1 °F 7.1 °F 1026.3 in Calm   9.7 mph 43 % 0.0 in
17:32 20.1 °F 7.5 °F 1026.3 in Calm   8.0 mph 44 % 0.0 in
17:42 20.1 °F 7.8 °F 1026.3 in Calm   4.8 mph 45 % 0.0 in
17:52 20.2 °F 7.6 °F 1026.3 in Calm   4.8 mph 44 % 0.0 in
17:57 20.3 °F 8.0 °F 1026.0 in Calm   4.8 mph 45 % 0.0 in
18:02 20.2 °F 7.6 °F 1026.3 in Calm   6.4 mph 44 % 0.0 in
18:12 20.0 °F 7.4 °F 1026.0 in NNW 1.6 mph 6.4 mph 44 % 0.0 in
18:17 20.2 °F 7.6 °F 1026.0 in NW 1.6 mph 4.8 mph 44 % 0.0 in
18:22 20.2 °F 7.9 °F 1026.0 in WNW 3.2 mph 4.8 mph 45 % 0.0 in
18:32 20.1 °F 8.1 °F 1026.0 in West 1.6 mph 4.8 mph 46 % 0.0 in
18:42 19.8 °F 7.8 °F 1026.0 in West 1.6 mph 9.7 mph 46 % 0.0 in
18:52 19.7 °F 7.8 °F 1026.0 in West 1.6 mph 9.7 mph 46 % 0.0 in
19:02 19.8 °F 7.8 °F 1026.3 in West 1.6 mph 8.0 mph 46 % 0.0 in
19:12 19.8 °F 8.2 °F 1026.3 in Calm   6.4 mph 47 % 0.0 in
19:17 19.9 °F 8.3 °F 1026.3 in Calm   6.4 mph 47 % 0.0 in
19:22 19.5 °F 7.9 °F 1026.3 in Calm   6.4 mph 47 % 0.0 in
19:32 19.2 °F 7.6 °F 1026.3 in Calm   1.6 mph 47 % 0.0 in
19:42 18.9 °F 7.6 °F 1026.3 in Calm     48 % 0.0 in
19:52 18.4 °F 7.5 °F 1026.3 in Calm     49 % 0.0 in
19:57 18.3 °F 7.4 °F 1026.3 in Calm     49 % 0.0 in
20:02 18.1 °F 7.5 °F 1026.3 in Calm     50 % 0.0 in
20:07 17.9 °F 7.3 °F 1026.3 in Calm     50 % 0.0 in
20:12 17.8 °F 7.2 °F 1026.3 in Calm     50 % 0.0 in
20:17 17.7 °F 7.4 °F 1026.3 in Calm     51 % 0.0 in
20:22 17.5 °F 7.5 °F 1026.3 in Calm     52 % 0.0 in
20:27 17.3 °F 7.6 °F 1026.3 in Calm     53 % 0.0 in
20:32 17.0 °F 7.3 °F 1026.6 in Calm     53 % 0.0 in
20:42 16.3 °F 7.8 °F 1026.6 in North 1.6 mph   57 % 0.0 in
20:52 15.9 °F 7.4 °F 1026.6 in Calm   3.2 mph 57 % 0.0 in
20:57 15.7 °F 7.5 °F 1026.6 in Calm   3.2 mph 58 % 0.0 in
21:02 15.6 °F 7.4 °F 1026.6 in NNW 1.6 mph 1.6 mph 58 % 0.0 in
21:07 15.5 °F 7.3 °F 1026.6 in NNW 1.6 mph 3.2 mph 58 % 0.0 in
21:17 15.3 °F 7.6 °F 1027.0 in Calm   3.2 mph 60 % 0.0 in
21:22 15.1 °F 7.4 °F 1027.0 in NNW 1.6 mph 1.6 mph 60 % 0.0 in
21:32 14.8 °F 7.4 °F 1027.0 in NNW 1.6 mph 1.6 mph 61 % 0.0 in
21:42 14.6 °F 7.2 °F 1027.0 in North 1.6 mph 3.2 mph 61 % 0.0 in
21:47 14.3 °F 7.1 °F 1027.0 in NNW 1.6 mph 4.8 mph 62 % 0.0 in
21:52 14.1 °F 7.2 °F 1027.0 in Calm   4.8 mph 63 % 0.0 in
21:57 14.1 °F 6.9 °F 1027.0 in North 1.6 mph 4.8 mph 62 % 0.0 in
22:02 13.8 °F 6.6 °F 1027.0 in NNW 3.2 mph 3.2 mph 62 % 0.0 in
22:12 13.1 °F 6.9 °F 1027.0 in WNW 1.6 mph 3.2 mph 66 % 0.0 in
22:22 12.9 °F 6.5 °F 1027.3 in Calm   3.2 mph 65 % 0.0 in
22:27 13.0 °F 6.8 °F 1027.3 in Calm   1.6 mph 66 % 0.0 in
22:32 12.8 °F 6.6 °F 1027.3 in Calm   1.6 mph 66 % 0.0 in
22:42 12.3 °F 6.8 °F 1027.3 in WNW 1.6 mph 1.6 mph 69 % 0.0 in
22:47 12.2 °F 7.1 °F 1027.3 in WNW 1.6 mph 1.6 mph 71 % 0.0 in
22:52 12.0 °F 7.3 °F 1027.3 in Calm   1.6 mph 73 % 0.0 in
22:57 11.9 °F 7.4 °F 1027.3 in WNW 1.6 mph 1.6 mph 74 % 0.0 in
23:02 11.9 °F 7.4 °F 1027.3 in WNW 1.6 mph 1.6 mph 74 % 0.0 in
23:12 12.4 °F 6.4 °F 1027.3 in Calm   1.6 mph 67 % 0.0 in
23:17 12.4 °F 6.4 °F 1027.3 in Calm   1.6 mph 67 % 0.0 in
23:22 12.3 °F 6.3 °F 1027.3 in Calm   1.6 mph 67 % 0.0 in
23:32 12.0 °F 6.3 °F 1027.3 in North 1.6 mph 1.6 mph 68 % 0.0 in
23:37 12.1 °F 6.4 °F 1027.3 in Calm   1.6 mph 68 % 0.0 in
23:42 12.1 °F 6.6 °F 1027.3 in North 1.6 mph 1.6 mph 69 % 0.0 in
23:47 12.2 °F 6.7 °F 1027.3 in North 1.6 mph 1.6 mph 69 % 0.0 in
23:52 12.3 °F 6.6 °F 1027.3 in Calm   3.2 mph 68 % 0.0 in
23:57 12.3 °F 6.6 °F 1027.3 in NNW 1.6 mph 3.2 mph 68 % 0.0 in
Meteo18
Compliments of Weather Underground - 4 mb

Script developed by  Jim McMurry - jmcmurry@mwt.net Adapted for the template by  Wim van der Kuil - Leuven-Template.eu

You find our weather info also at:

European Weather Network

Weather Underground

Equipment we use:

Weather-station
Davis Vue

Weather-program
Meteobridge

Weather-server
Raspberry PI 2 B+

Provider
1 and 1

Davis Vue

Meteobridge

Raspberry PI 2 B+

1 and 1